createdAt,value
2019-05-15T00:00:28.913Z,8.30
2019-05-15T00:02:59.477Z,8.30
2019-05-15T00:05:29.862Z,8.20
2019-05-15T00:08:00.327Z,8.20
2019-05-15T00:10:30.716Z,8.20
2019-05-15T00:13:01.173Z,8.10
2019-05-15T00:15:31.603Z,8.10
2019-05-15T00:18:02.016Z,8.10
2019-05-15T00:20:32.420Z,8.00
2019-05-15T00:23:02.882Z,8.00
2019-05-15T00:25:33.281Z,7.90
2019-05-15T00:28:03.717Z,7.90
2019-05-15T00:30:34.098Z,8.00
2019-05-15T00:33:04.497Z,7.90
2019-05-15T00:35:34.872Z,7.90
2019-05-15T00:38:05.319Z,7.90
2019-05-15T00:40:35.668Z,7.80
2019-05-15T00:43:06.089Z,7.80
2019-05-15T00:45:38.582Z,7.80
2019-05-15T00:48:09.134Z,7.80
2019-05-15T00:50:39.706Z,7.70
2019-05-15T00:53:10.562Z,7.70
2019-05-15T00:55:41.125Z,7.70
2019-05-15T00:58:13.446Z,7.60
2019-05-15T01:00:45.609Z,7.60
2019-05-15T01:03:18.067Z,7.50
2019-05-15T01:05:48.268Z,7.50
2019-05-15T01:08:19.451Z,7.50
2019-05-15T01:10:49.990Z,7.50
2019-05-15T01:13:20.435Z,7.50
2019-05-15T01:15:51.123Z,7.40
2019-05-15T01:18:21.739Z,7.40
2019-05-15T01:20:52.156Z,7.30
2019-05-15T01:23:22.550Z,7.30
2019-05-15T01:25:53.053Z,7.30
2019-05-15T01:28:23.426Z,7.30
2019-05-15T01:30:54.150Z,7.30
2019-05-15T01:33:24.567Z,7.30
2019-05-15T01:35:54.980Z,7.20
2019-05-15T01:38:25.406Z,7.10
2019-05-15T01:40:55.799Z,7.20
2019-05-15T01:43:28.920Z,7.20
2019-05-15T01:45:58.911Z,7.20
2019-05-15T01:48:29.514Z,7.10
2019-05-15T01:50:59.906Z,7.10
2019-05-15T01:53:30.328Z,7.10
2019-05-15T01:56:00.898Z,7.10
2019-05-15T01:58:31.348Z,7.00
2019-05-15T02:01:01.790Z,7.00
2019-05-15T02:03:32.216Z,7.00
2019-05-15T02:06:02.658Z,7.10
2019-05-15T02:08:33.091Z,7.10
2019-05-15T02:11:03.524Z,7.10
2019-05-15T02:13:33.932Z,7.10
2019-05-15T02:16:04.329Z,7.00
2019-05-15T02:18:34.740Z,7.00
2019-05-15T02:21:06.722Z,7.00
2019-05-15T02:23:38.802Z,6.90
2019-05-15T02:26:09.391Z,6.80
2019-05-15T02:28:39.778Z,6.80
2019-05-15T02:31:10.818Z,6.80
2019-05-15T02:33:41.280Z,6.70
2019-05-15T02:36:11.727Z,6.70
2019-05-15T02:38:42.107Z,6.60
2019-05-15T02:41:12.539Z,6.70
2019-05-15T02:43:42.957Z,6.70
2019-05-15T02:46:13.384Z,6.70
2019-05-15T02:48:43.948Z,6.70
2019-05-15T02:51:14.374Z,6.60
2019-05-15T02:53:44.785Z,6.60
2019-05-15T02:56:15.229Z,6.60
2019-05-15T02:58:45.620Z,6.50
2019-05-15T03:01:18.864Z,6.50
2019-05-15T03:03:49.774Z,6.50
2019-05-15T03:06:20.848Z,6.50
2019-05-15T03:08:53.130Z,6.50
2019-05-15T03:11:23.574Z,6.40
2019-05-15T03:13:53.960Z,6.50
2019-05-15T03:16:24.641Z,6.40
2019-05-15T03:18:55.920Z,6.40
2019-05-15T03:21:29.453Z,6.40
2019-05-15T03:23:59.677Z,6.30
2019-05-15T03:26:30.398Z,6.30
2019-05-15T03:29:00.822Z,6.30
2019-05-15T03:31:50.801Z,6.30
2019-05-15T03:34:04.158Z,6.30
2019-05-15T03:36:34.654Z,6.30
2019-05-15T03:39:09.534Z,6.30
2019-05-15T03:41:39.420Z,6.20
2019-05-15T03:44:10.009Z,6.20
2019-05-15T03:46:40.427Z,6.30
2019-05-15T03:49:10.851Z,6.30
2019-05-15T03:51:45.696Z,6.30
2019-05-15T03:54:13.492Z,6.30
2019-05-15T03:56:43.884Z,6.30
2019-05-15T03:59:14.632Z,6.40
2019-05-15T04:01:45.060Z,6.40
2019-05-15T04:04:18.748Z,6.40
2019-05-15T04:06:50.003Z,6.40
2019-05-15T04:09:19.810Z,6.40
2019-05-15T04:11:50.316Z,6.40
2019-05-15T04:14:20.897Z,6.40
2019-05-15T04:16:51.438Z,6.40
2019-05-15T04:19:21.823Z,6.40
2019-05-15T04:21:52.258Z,6.50
2019-05-15T04:24:23.171Z,6.50
2019-05-15T04:26:53.979Z,6.50
2019-05-15T04:29:24.367Z,6.60
2019-05-15T04:32:01.241Z,6.60
2019-05-15T04:34:28.989Z,6.70
2019-05-15T04:36:59.139Z,6.70
2019-05-15T04:39:29.763Z,6.70
2019-05-15T04:42:00.217Z,6.70
2019-05-15T04:44:30.696Z,6.80
2019-05-15T04:47:01.267Z,6.70
2019-05-15T04:49:31.703Z,6.80
2019-05-15T04:52:03.893Z,6.90
2019-05-15T04:54:34.610Z,6.90
2019-05-15T04:57:09.009Z,7.00
2019-05-15T04:59:39.019Z,7.20
2019-05-15T05:02:25.988Z,7.30
2019-05-15T05:04:41.819Z,7.40
2019-05-15T05:07:12.400Z,7.50
2019-05-15T05:09:42.850Z,7.50
2019-05-15T05:12:13.298Z,7.60
2019-05-15T05:14:44.109Z,7.70
2019-05-15T05:17:14.510Z,7.70
2019-05-15T05:19:44.951Z,7.80
2019-05-15T05:22:15.364Z,8.00
2019-05-15T05:24:47.706Z,8.10
2019-05-15T05:27:18.308Z,8.20
2019-05-15T05:29:48.807Z,8.30
2019-05-15T05:32:30.902Z,8.30
2019-05-15T05:34:51.358Z,8.40
2019-05-15T05:37:21.776Z,8.50
2019-05-15T05:39:52.191Z,8.50
2019-05-15T05:42:22.626Z,8.70
2019-05-15T05:44:53.082Z,8.70
2019-05-15T05:47:23.569Z,9.30
2019-05-15T05:49:54.010Z,11.20
2019-05-15T05:52:24.393Z,13.80
2019-05-15T05:54:54.885Z,16.50
2019-05-15T05:57:25.317Z,19.00
2019-05-15T05:59:58.181Z,21.00
2019-05-15T06:02:28.075Z,22.50
2019-05-15T06:04:58.601Z,23.90
2019-05-15T06:07:29.063Z,25.00
2019-05-15T06:09:59.492Z,25.70
2019-05-15T06:12:29.938Z,26.70
2019-05-15T06:15:00.378Z,27.50
2019-05-15T06:17:30.813Z,28.50
2019-05-15T06:20:01.241Z,29.00
2019-05-15T06:22:31.671Z,29.30
2019-05-15T06:25:04.802Z,29.10
2019-05-15T06:27:34.277Z,29.30
2019-05-15T06:30:05.354Z,29.70
2019-05-15T06:32:35.760Z,29.90
2019-05-15T06:35:08.616Z,29.30
2019-05-15T06:37:39.750Z,29.80
2019-05-15T06:40:10.382Z,30.40
2019-05-15T06:42:40.976Z,31.00
2019-05-15T06:45:11.771Z,31.10
2019-05-15T06:47:42.511Z,31.40
2019-05-15T06:50:13.990Z,32.00
2019-05-15T06:52:44.644Z,32.60
2019-05-15T06:55:15.052Z,33.20
2019-05-15T06:57:45.562Z,33.70
2019-05-15T07:00:19.040Z,34.40
2019-05-15T07:02:48.771Z,34.70
2019-05-15T07:05:19.600Z,35.20
2019-05-15T07:07:50.105Z,35.10
2019-05-15T07:10:20.561Z,34.40
2019-05-15T07:12:51.618Z,34.90
2019-05-15T07:15:22.238Z,35.00
2019-05-15T07:17:52.673Z,35.40
2019-05-15T07:20:23.401Z,35.10
2019-05-15T07:22:53.829Z,35.10
2019-05-15T07:25:24.430Z,34.90
2019-05-15T07:27:55.211Z,35.70
2019-05-15T07:30:25.922Z,35.90
2019-05-15T07:32:58.268Z,36.10
2019-05-15T07:35:28.868Z,36.30
2019-05-15T07:37:59.433Z,35.70
2019-05-15T07:40:30.109Z,36.00
2019-05-15T07:43:00.577Z,36.10
2019-05-15T07:45:31.045Z,36.80
2019-05-15T07:48:01.522Z,36.50
2019-05-15T07:50:31.951Z,36.50
2019-05-15T07:53:02.344Z,36.60
2019-05-15T07:55:32.786Z,36.80
2019-05-15T07:58:03.168Z,36.00
2019-05-15T08:00:34.005Z,36.40
2019-05-15T08:03:04.443Z,36.70
2019-05-15T08:05:34.912Z,36.40
2019-05-15T08:08:05.322Z,35.40
2019-05-15T08:10:35.767Z,35.80
2019-05-15T08:13:08.608Z,36.60
2019-05-15T08:15:38.400Z,37.30
2019-05-15T08:18:12.679Z,38.30
2019-05-15T08:20:40.996Z,39.20
2019-05-15T08:23:11.431Z,38.80
2019-05-15T08:25:41.886Z,39.10
2019-05-15T08:28:12.322Z,39.70
2019-05-15T08:30:42.761Z,40.80
2019-05-15T08:33:13.272Z,40.20
2019-05-15T08:35:47.757Z,40.00
2019-05-15T08:38:17.988Z,39.40
2019-05-15T08:40:48.918Z,38.70
2019-05-15T08:43:19.878Z,39.10
2019-05-15T08:45:50.530Z,39.20
2019-05-15T08:48:21.037Z,39.30
2019-05-15T08:50:51.629Z,39.30
2019-05-15T08:53:22.071Z,38.20
2019-05-15T08:55:52.630Z,38.30
2019-05-15T08:58:23.050Z,38.50
2019-05-15T09:00:53.511Z,38.50
2019-05-15T09:03:23.936Z,39.10
2019-05-15T09:05:54.631Z,40.20
2019-05-15T09:08:25.023Z,41.40
2019-05-15T09:10:55.651Z,41.60
2019-05-15T09:13:26.104Z,41.90
2019-05-15T09:15:58.900Z,40.60
2019-05-15T09:18:29.319Z,40.60
2019-05-15T09:20:59.767Z,41.30
2019-05-15T09:23:30.198Z,42.10
2019-05-15T09:26:00.866Z,41.50
2019-05-15T09:28:31.267Z,40.80
2019-05-15T09:31:01.908Z,38.40
2019-05-15T09:33:32.307Z,37.70
2019-05-15T09:36:02.772Z,37.40
2019-05-15T09:38:33.209Z,37.80
2019-05-15T09:41:03.669Z,38.70
2019-05-15T09:43:34.056Z,38.10
2019-05-15T09:46:07.415Z,37.70
2019-05-15T09:48:39.109Z,38.50
2019-05-15T09:51:09.381Z,39.80
2019-05-15T09:53:40.037Z,40.80
2019-05-15T09:56:10.496Z,42.00
2019-05-15T09:58:40.909Z,43.60
2019-05-15T10:01:11.487Z,44.60
2019-05-15T10:03:44.387Z,45.00
2019-05-15T10:06:14.103Z,44.60
2019-05-15T10:08:44.531Z,44.60
2019-05-15T10:11:14.968Z,44.30
2019-05-15T10:13:45.454Z,44.30
2019-05-15T10:16:15.910Z,39.90
2019-05-15T10:18:50.975Z,39.50
2019-05-15T10:21:18.794Z,39.90
2019-05-15T10:23:49.718Z,39.40
2019-05-15T10:26:20.175Z,37.70
2019-05-15T10:28:50.628Z,36.30
2019-05-15T10:31:21.045Z,35.60
2019-05-15T10:33:51.541Z,34.50
2019-05-15T10:36:21.946Z,32.30
2019-05-15T10:38:52.413Z,30.60
2019-05-15T10:41:22.838Z,29.30
2019-05-15T10:43:56.245Z,28.20
2019-05-15T10:46:25.479Z,26.70
2019-05-15T10:48:58.404Z,24.90
2019-05-15T10:51:28.669Z,23.30
2019-05-15T10:53:59.304Z,22.20
2019-05-15T10:56:29.880Z,21.40
2019-05-15T10:59:00.326Z,20.80
2019-05-15T11:01:30.787Z,20.40
2019-05-15T11:04:01.308Z,20.10
2019-05-15T11:06:31.807Z,19.80
2019-05-15T11:09:02.424Z,19.60
2019-05-15T11:11:33.466Z,19.50
2019-05-15T11:14:04.033Z,19.50
2019-05-15T11:16:34.523Z,19.20
2019-05-15T11:19:05.041Z,19.10
2019-05-15T11:21:35.441Z,18.70
2019-05-15T11:24:08.610Z,18.20
2019-05-15T11:26:39.186Z,17.60
2019-05-15T11:29:09.957Z,17.60
2019-05-15T11:31:40.582Z,17.80
2019-05-15T11:34:11.246Z,18.00
2019-05-15T11:36:41.703Z,18.20
2019-05-15T11:39:12.197Z,18.20
2019-05-15T11:41:42.669Z,18.30
2019-05-15T11:44:13.167Z,18.20
2019-05-15T11:46:43.745Z,18.00
2019-05-15T11:49:14.284Z,17.80
2019-05-15T11:51:44.700Z,17.90
2019-05-15T11:54:15.343Z,17.50
2019-05-15T11:56:48.696Z,17.10
2019-05-15T11:59:18.659Z,17.10
2019-05-15T12:01:49.278Z,17.30
2019-05-15T12:04:30.145Z,17.50
2019-05-15T12:06:59.778Z,17.60
2019-05-15T12:09:24.567Z,17.80
2019-05-15T12:11:55.015Z,17.80
2019-05-15T12:14:25.480Z,18.10
2019-05-15T12:17:07.135Z,18.20
2019-05-15T12:19:29.320Z,18.20
2019-05-15T12:22:00.041Z,18.20
2019-05-15T12:24:35.269Z,18.00
2019-05-15T12:29:35.199Z,18.00
2019-05-15T12:32:23.500Z,17.90
2019-05-15T12:34:38.872Z,17.90
2019-05-15T12:37:10.000Z,17.70
2019-05-15T12:39:41.156Z,17.80
2019-05-15T12:59:59.803Z,17.40
2019-05-15T13:02:30.460Z,17.60
2019-05-15T13:05:00.938Z,17.50
2019-05-15T13:07:31.364Z,17.80
2019-05-15T13:10:01.821Z,18.00
2019-05-15T13:12:32.250Z,17.90
2019-05-15T13:15:02.709Z,18.10
2019-05-15T13:17:33.379Z,18.20
2019-05-15T13:20:04.056Z,18.20
2019-05-15T13:22:36.420Z,18.40
2019-05-15T13:25:08.612Z,18.40
2019-05-15T13:27:39.251Z,18.40
2019-05-15T13:30:10.301Z,18.70
2019-05-15T13:32:41.414Z,19.10
2019-05-15T13:35:12.113Z,19.10
2019-05-15T13:37:42.548Z,19.00
2019-05-15T13:40:13.650Z,19.10
2019-05-15T13:42:44.114Z,19.30
2019-05-15T13:45:15.527Z,19.20
2019-05-15T13:47:45.930Z,19.10
2019-05-15T13:50:19.497Z,18.90
2019-05-15T13:52:48.991Z,18.90
2019-05-15T13:55:25.706Z,18.80
2019-05-15T13:57:51.745Z,18.80
2019-05-15T14:00:24.261Z,18.60
2019-05-15T14:02:54.672Z,18.70
2019-05-15T14:05:25.159Z,18.30
2019-05-15T14:07:58.172Z,18.30
2019-05-15T14:10:28.555Z,18.40
2019-05-15T14:12:59.179Z,18.50
2019-05-15T14:15:29.630Z,18.50
2019-05-15T14:18:00.047Z,18.20
2019-05-15T14:20:30.467Z,18.10
2019-05-15T14:23:01.871Z,18.20
2019-05-15T14:25:32.341Z,18.30
2019-05-15T14:28:02.763Z,18.10
2019-05-15T14:30:33.198Z,18.20
2019-05-15T14:33:03.639Z,18.30
2019-05-15T14:35:34.067Z,18.20
2019-05-15T14:38:06.788Z,18.30
2019-05-15T14:40:37.147Z,18.60
2019-05-15T14:43:09.052Z,18.70
2019-05-15T14:45:39.555Z,18.80
2019-05-15T14:48:10.280Z,18.80
2019-05-15T14:50:40.763Z,18.50
2019-05-15T14:53:11.233Z,18.50
2019-05-15T14:55:43.987Z,18.70
2019-05-15T14:58:13.973Z,18.70
2019-05-15T15:00:44.500Z,18.80
2019-05-15T15:03:15.283Z,18.90
2019-05-15T15:05:45.691Z,19.00
2019-05-15T15:08:24.237Z,19.10
2019-05-15T15:10:48.281Z,19.20
2019-05-15T15:13:18.754Z,19.10
2019-05-15T15:15:49.529Z,18.90
2019-05-15T15:18:19.980Z,18.70
2019-05-15T15:20:50.434Z,18.60
2019-05-15T15:23:20.899Z,18.60
2019-05-15T15:25:51.382Z,18.50
2019-05-15T15:28:21.836Z,18.50
2019-05-15T15:30:52.349Z,18.50
2019-05-15T15:33:22.771Z,18.50
2019-05-15T15:35:54.217Z,18.70
2019-05-15T15:38:39.810Z,18.80
2019-05-15T15:41:00.050Z,19.00
2019-05-15T15:43:29.721Z,19.00
2019-05-15T15:46:00.141Z,19.00
2019-05-15T15:48:30.929Z,19.00
2019-05-15T15:51:01.387Z,18.90
2019-05-15T15:53:31.866Z,18.80
2019-05-15T15:56:02.607Z,18.90
2019-05-15T15:58:33.122Z,18.60
2019-05-15T16:01:03.560Z,18.50
2019-05-15T16:03:34.109Z,18.50
2019-05-15T16:06:04.519Z,18.50
2019-05-15T16:08:48.112Z,18.30
2019-05-15T16:11:08.337Z,18.10
2019-05-15T16:13:38.932Z,18.00
2019-05-15T16:16:09.473Z,18.20
2019-05-15T16:18:40.819Z,18.40
2019-05-15T16:21:11.655Z,18.50
2019-05-15T16:23:42.306Z,18.40
2019-05-15T16:26:12.758Z,18.30
2019-05-15T16:28:43.222Z,18.10
2019-05-15T16:31:13.682Z,17.90
2019-05-15T16:33:44.215Z,17.80
2019-05-15T16:36:14.691Z,17.60
2019-05-15T16:38:45.162Z,17.80
2019-05-15T16:41:18.230Z,17.90
2019-05-15T16:43:48.682Z,18.20
2019-05-15T16:46:19.389Z,18.50
2019-05-15T16:48:50.111Z,18.70
2019-05-15T16:51:22.035Z,18.50
2019-05-15T16:53:52.500Z,18.30
2019-05-15T16:56:22.969Z,18.30
2019-05-15T16:58:53.431Z,18.10
2019-05-15T17:01:23.852Z,17.90
2019-05-15T17:03:54.302Z,17.70
2019-05-15T17:06:24.720Z,17.70
2019-05-15T17:08:55.195Z,17.50
2019-05-15T17:11:25.589Z,17.40
2019-05-15T17:13:56.127Z,17.40
2019-05-15T17:16:26.566Z,17.30
2019-05-15T17:18:58.157Z,17.10
2019-05-15T17:21:28.820Z,16.90
2019-05-15T17:23:59.404Z,16.80
2019-05-15T17:26:30.083Z,16.60
2019-05-15T17:29:00.621Z,16.60
2019-05-15T17:31:31.266Z,16.60
2019-05-15T17:34:02.108Z,16.70
2019-05-15T17:36:32.608Z,16.60
2019-05-15T17:39:03.322Z,16.60
2019-05-15T17:41:36.190Z,16.40
2019-05-15T17:44:06.747Z,16.10
2019-05-15T17:46:38.437Z,16.00
2019-05-15T17:49:15.217Z,15.90
2019-05-15T17:51:41.488Z,15.80
2019-05-15T17:54:12.113Z,15.80
2019-05-15T17:56:42.631Z,15.80
2019-05-15T17:59:14.977Z,15.60
2019-05-15T18:01:49.141Z,15.50
2019-05-15T18:04:19.344Z,15.50
2019-05-15T18:06:50.166Z,15.30
2019-05-15T18:09:20.838Z,15.20
2019-05-15T18:11:51.269Z,15.20
2019-05-15T18:14:22.343Z,15.10
2019-05-15T18:16:52.741Z,15.20
2019-05-15T18:19:24.923Z,15.10
2019-05-15T18:21:59.220Z,15.00
2019-05-15T18:24:30.253Z,15.10
2019-05-15T18:27:01.904Z,15.00
2019-05-15T18:29:33.072Z,14.90
2019-05-15T18:32:04.362Z,15.00
2019-05-15T18:34:35.573Z,15.00
2019-05-15T18:37:08.680Z,15.00
2019-05-15T18:39:39.582Z,14.80
2019-05-15T18:42:10.534Z,14.80
2019-05-15T18:44:41.375Z,14.90
2019-05-15T18:47:12.136Z,14.80
2019-05-15T18:49:43.058Z,14.90
2019-05-15T18:52:13.503Z,14.70
2019-05-15T18:54:44.272Z,14.50
2019-05-15T18:57:14.878Z,14.50
2019-05-15T18:59:45.719Z,14.40
2019-05-15T19:02:19.044Z,14.30
2019-05-15T19:04:49.032Z,14.20
2019-05-15T19:07:19.727Z,14.20
2019-05-15T19:09:50.516Z,14.20
2019-05-15T19:12:20.961Z,14.20
2019-05-15T19:14:51.494Z,14.20
2019-05-15T19:17:21.909Z,14.10
2019-05-15T19:19:52.509Z,14.10
2019-05-15T19:22:22.954Z,14.20
2019-05-15T19:24:53.816Z,14.20
2019-05-15T19:27:24.333Z,14.00
2019-05-15T19:29:54.760Z,14.00
2019-05-15T19:32:25.223Z,14.00
2019-05-15T19:34:55.644Z,14.00
2019-05-15T19:37:28.650Z,14.10
2019-05-15T19:39:59.229Z,14.20
2019-05-15T19:42:29.955Z,14.20
2019-05-15T19:45:01.355Z,14.20
2019-05-15T19:47:32.530Z,14.20
2019-05-15T19:50:03.102Z,14.20
2019-05-15T19:52:33.706Z,14.20
2019-05-15T19:55:04.974Z,14.20
2019-05-15T19:57:35.488Z,14.20
2019-05-15T20:00:08.489Z,14.20
2019-05-15T20:02:39.224Z,14.20
2019-05-15T20:05:10.044Z,14.10
2019-05-15T20:07:40.491Z,14.10
2019-05-15T20:10:12.472Z,14.20
2019-05-15T20:12:43.038Z,14.20
2019-05-15T20:15:13.672Z,14.20
2019-05-15T20:17:44.095Z,14.10
2019-05-15T20:20:14.871Z,14.10
2019-05-15T20:22:45.453Z,14.00
2019-05-15T20:25:18.333Z,14.00
2019-05-15T20:27:49.372Z,14.00
2019-05-15T20:30:19.947Z,14.00
2019-05-15T20:32:50.913Z,13.90
2019-05-15T20:35:21.428Z,14.00
2019-05-15T20:37:52.352Z,14.00
2019-05-15T20:40:22.856Z,14.00
2019-05-15T20:42:53.566Z,13.90
2019-05-15T20:45:24.091Z,13.90
2019-05-15T20:47:54.949Z,14.00
2019-05-15T20:50:28.083Z,14.00
2019-05-15T20:52:58.874Z,14.00
2019-05-15T20:55:29.750Z,13.90
2019-05-15T20:58:02.478Z,13.90
2019-05-15T21:00:32.969Z,13.90
2019-05-15T21:03:03.435Z,13.80
2019-05-15T21:05:33.905Z,13.70
2019-05-15T21:08:04.672Z,13.70
2019-05-15T21:10:35.123Z,13.60
2019-05-15T21:13:05.616Z,13.60
2019-05-15T21:15:36.011Z,13.50
2019-05-15T21:18:14.209Z,13.50
2019-05-15T21:20:38.880Z,13.50
2019-05-15T21:23:09.405Z,13.50
2019-05-15T21:25:39.888Z,13.40
2019-05-15T21:28:10.315Z,13.40
2019-05-15T21:30:41.104Z,13.40
2019-05-15T21:33:11.784Z,13.30
2019-05-15T21:35:42.455Z,13.30
2019-05-15T21:38:13.074Z,13.30
2019-05-15T21:40:43.502Z,13.30
2019-05-15T21:43:13.928Z,13.30
2019-05-15T21:45:44.410Z,13.20
2019-05-15T21:48:14.952Z,13.20
2019-05-15T21:50:45.406Z,13.20
2019-05-15T21:53:17.748Z,13.10
2019-05-15T21:55:50.757Z,13.00
2019-05-15T21:58:21.315Z,13.00
2019-05-15T22:00:55.366Z,12.90
2019-05-15T22:03:28.534Z,12.90
2019-05-15T22:05:59.411Z,12.90
2019-05-15T22:08:29.817Z,12.80
2019-05-15T22:11:00.307Z,12.70
2019-05-15T22:13:31.598Z,12.70
2019-05-15T22:16:02.204Z,12.60
2019-05-15T22:18:32.820Z,12.50
2019-05-15T22:21:03.532Z,12.50
2019-05-15T22:23:33.972Z,12.40
2019-05-15T22:26:04.429Z,12.30
2019-05-15T22:28:34.848Z,12.20
2019-05-15T22:31:05.329Z,12.20
2019-05-15T22:33:35.711Z,12.20
2019-05-15T22:36:07.978Z,12.10
2019-05-15T22:38:38.295Z,12.10
2019-05-15T22:41:10.565Z,12.10
2019-05-15T22:43:41.047Z,12.10
2019-05-15T22:46:11.538Z,12.10
2019-05-15T22:48:41.947Z,12.10
2019-05-15T22:51:12.646Z,12.10
2019-05-15T22:53:43.076Z,12.00
2019-05-15T22:56:13.549Z,12.10
2019-05-15T22:58:43.955Z,12.10
2019-05-15T23:01:14.440Z,12.10
2019-05-15T23:03:44.834Z,12.00
2019-05-15T23:06:17.654Z,12.00
2019-05-15T23:08:48.959Z,12.00
2019-05-15T23:11:19.623Z,11.90
2019-05-15T23:13:50.022Z,11.90
2019-05-15T23:16:20.983Z,11.90
2019-05-15T23:18:51.459Z,11.80
2019-05-15T23:21:22.070Z,11.80
2019-05-15T23:23:52.515Z,11.80
2019-05-15T23:26:22.952Z,11.80
2019-05-15T23:28:53.443Z,11.80
2019-05-15T23:31:23.876Z,11.80
2019-05-15T23:33:54.322Z,11.80
2019-05-15T23:36:24.720Z,11.80
2019-05-15T23:38:55.180Z,11.70
2019-05-15T23:41:27.968Z,11.70
2019-05-15T23:43:57.803Z,11.70
2019-05-15T23:46:28.844Z,11.70
2019-05-15T23:48:59.494Z,11.70
2019-05-15T23:51:29.899Z,11.70
2019-05-15T23:54:00.358Z,11.70
2019-05-15T23:56:30.749Z,11.70
2019-05-15T23:59:01.179Z,11.70
